createdAt,value
2019-01-11T00:01:35.405Z,91.20
2019-01-11T00:04:03.271Z,91.10
2019-01-11T00:06:31.084Z,91.20
2019-01-11T00:08:58.779Z,91.40
2019-01-11T00:11:26.457Z,91.60
2019-01-11T00:13:54.214Z,91.70
2019-01-11T00:16:21.909Z,91.70
2019-01-11T00:18:49.593Z,91.80
2019-01-11T00:21:17.832Z,91.80
2019-01-11T00:23:45.534Z,91.80
2019-01-11T00:26:13.242Z,91.70
2019-01-11T00:28:40.981Z,91.90
2019-01-11T00:31:08.665Z,92.10
2019-01-11T00:33:36.667Z,92.20
2019-01-11T00:36:04.491Z,92.30
2019-01-11T00:38:32.146Z,92.20
2019-01-11T00:40:59.886Z,92.20
2019-01-11T00:43:27.719Z,92.10
2019-01-11T00:45:55.405Z,92.10
2019-01-11T00:48:23.109Z,92.00
2019-01-11T00:50:51.057Z,91.80
2019-01-11T00:53:18.740Z,91.70
2019-01-11T00:55:46.449Z,91.70
2019-01-11T00:58:14.446Z,91.70
2019-01-11T01:00:42.139Z,91.90
2019-01-11T01:03:09.956Z,92.00
2019-01-11T01:05:37.994Z,92.10
2019-01-11T01:08:05.940Z,92.10
2019-01-11T01:10:33.590Z,92.00
2019-01-11T01:13:01.325Z,91.90
2019-01-11T01:15:29.011Z,91.90
2019-01-11T01:17:56.697Z,91.90
2019-01-11T01:20:24.511Z,92.00
2019-01-11T01:22:52.217Z,92.00
2019-01-11T01:25:19.892Z,91.80
2019-01-11T01:27:47.613Z,91.70
2019-01-11T01:30:16.370Z,91.90
2019-01-11T01:32:44.073Z,91.80
2019-01-11T01:35:11.774Z,91.80
2019-01-11T01:37:39.783Z,91.80
2019-01-11T01:40:11.909Z,91.70
2019-01-11T01:42:41.841Z,91.60
2019-01-11T01:45:11.465Z,91.60
2019-01-11T01:47:40.973Z,91.60
2019-01-11T01:50:09.482Z,91.80
2019-01-11T01:52:37.162Z,91.80
2019-01-11T01:55:05.617Z,91.80
2019-01-11T01:57:33.322Z,92.00
2019-01-11T02:00:01.008Z,91.80
2019-01-11T02:02:28.714Z,91.70
2019-01-11T02:04:56.452Z,91.80
2019-01-11T02:07:24.177Z,91.70
2019-01-11T02:09:51.913Z,91.70
2019-01-11T02:12:19.654Z,91.70
2019-01-11T02:14:47.357Z,91.70
2019-01-11T02:17:15.646Z,91.70
2019-01-11T02:19:43.366Z,91.70
2019-01-11T02:22:11.298Z,91.60
2019-01-11T02:24:38.998Z,91.80
2019-01-11T02:27:06.735Z,91.80
2019-01-11T02:29:34.426Z,91.90
2019-01-11T02:32:02.128Z,92.00
2019-01-11T02:34:29.849Z,92.10
2019-01-11T02:36:57.551Z,92.00
2019-01-11T02:39:25.241Z,92.10
2019-01-11T02:41:52.946Z,92.10
2019-01-11T02:44:20.638Z,92.10
2019-01-11T02:46:48.347Z,92.00
2019-01-11T02:49:16.064Z,92.00
2019-01-11T02:51:43.875Z,92.00
2019-01-11T02:54:11.561Z,92.10
2019-01-11T02:56:39.284Z,92.00
2019-01-11T02:59:06.977Z,92.10
2019-01-11T03:01:34.659Z,92.10
2019-01-11T03:04:02.406Z,92.10
2019-01-11T03:06:30.095Z,92.10
2019-01-11T03:08:57.771Z,92.20
2019-01-11T03:11:25.579Z,92.70
2019-01-11T03:13:53.265Z,92.40
2019-01-11T03:16:20.993Z,93.00
2019-01-11T03:18:48.993Z,92.70
2019-01-11T03:21:16.687Z,92.60
2019-01-11T03:23:46.178Z,92.60
2019-01-11T03:26:13.906Z,92.70
2019-01-11T03:28:41.617Z,92.80
2019-01-11T03:31:16.695Z,92.90
2019-01-11T03:33:44.390Z,93.00
2019-01-11T03:36:12.075Z,93.10
2019-01-11T03:38:39.823Z,93.10
2019-01-11T03:41:07.529Z,93.40
2019-01-11T03:43:35.213Z,93.40
2019-01-11T03:46:02.960Z,93.70
2019-01-11T03:48:30.630Z,93.70
2019-01-11T03:50:58.317Z,93.70
2019-01-11T03:53:26.177Z,93.80
2019-01-11T03:55:53.858Z,93.80
2019-01-11T03:58:21.554Z,94.00
2019-01-11T04:00:49.276Z,93.90
2019-01-11T04:03:17.113Z,93.90
2019-01-11T04:05:44.827Z,93.90
2019-01-11T04:08:12.778Z,94.00
2019-01-11T04:10:40.459Z,93.90
2019-01-11T04:13:08.254Z,93.90
2019-01-11T04:15:36.018Z,93.90
2019-01-11T04:18:20.677Z,93.80
2019-01-11T04:20:51.314Z,93.60
2019-01-11T04:23:19.090Z,93.60
2019-01-11T04:25:47.291Z,93.60
2019-01-11T04:28:15.065Z,93.70
2019-01-11T04:30:42.737Z,93.90
2019-01-11T04:33:10.426Z,93.90
2019-01-11T04:35:38.410Z,94.00
2019-01-11T04:38:06.103Z,94.10
2019-01-11T04:40:34.305Z,94.20
2019-01-11T04:43:02.262Z,94.30
2019-01-11T04:45:29.951Z,94.40
2019-01-11T04:47:57.649Z,94.40
2019-01-11T04:50:25.395Z,94.50
2019-01-11T04:52:53.092Z,94.60
2019-01-11T04:55:20.790Z,94.70
2019-01-11T04:57:48.487Z,94.60
2019-01-11T05:00:18.369Z,94.60
2019-01-11T05:02:46.045Z,94.50
2019-01-11T05:05:13.787Z,94.40
2019-01-11T05:07:41.499Z,94.40
2019-01-11T05:10:10.226Z,94.40
2019-01-11T05:12:37.940Z,94.40
2019-01-11T05:15:05.769Z,94.30
2019-01-11T05:17:33.456Z,94.20
2019-01-11T05:20:01.194Z,94.10
2019-01-11T05:22:28.891Z,94.20
2019-01-11T05:24:56.582Z,94.20
2019-01-11T05:27:24.373Z,94.30
2019-01-11T05:29:52.130Z,94.20
2019-01-11T05:32:19.814Z,94.20
2019-01-11T05:34:47.541Z,94.50
2019-01-11T05:37:15.226Z,94.40
2019-01-11T05:39:42.931Z,94.70
2019-01-11T05:42:10.649Z,94.60
2019-01-11T05:44:38.350Z,94.50
2019-01-11T05:47:06.056Z,94.60
2019-01-11T05:49:33.765Z,94.70
2019-01-11T05:52:01.558Z,94.70
2019-01-11T05:54:29.246Z,94.80
2019-01-11T05:56:56.953Z,94.80
2019-01-11T05:59:24.699Z,94.80
2019-01-11T06:01:52.405Z,94.80
2019-01-11T06:04:48.678Z,94.80
2019-01-11T06:07:28.034Z,94.90
2019-01-11T06:09:55.751Z,94.70
2019-01-11T06:12:23.442Z,94.60
2019-01-11T06:14:51.128Z,94.60
2019-01-11T06:17:18.922Z,94.60
2019-01-11T06:19:46.606Z,94.70
2019-01-11T06:22:14.304Z,94.80
2019-01-11T06:24:42.039Z,94.90
2019-01-11T06:27:09.746Z,94.90
2019-01-11T06:29:37.543Z,95.00
2019-01-11T06:32:05.558Z,94.90
2019-01-11T06:34:33.334Z,94.90
2019-01-11T06:37:01.002Z,94.90
2019-01-11T06:39:28.706Z,95.00
2019-01-11T06:42:03.013Z,95.00
2019-01-11T06:44:30.774Z,95.00
2019-01-11T06:46:58.474Z,95.10
2019-01-11T06:49:26.227Z,95.00
2019-01-11T06:51:53.946Z,95.10
2019-01-11T06:54:21.625Z,95.10
2019-01-11T06:56:49.326Z,95.10
2019-01-11T06:59:17.055Z,95.20
2019-01-11T07:01:44.762Z,95.20
2019-01-11T07:04:12.473Z,95.30
2019-01-11T07:06:40.225Z,95.30
2019-01-11T07:09:08.680Z,95.30
2019-01-11T07:11:36.488Z,95.20
2019-01-11T07:14:04.318Z,95.20
2019-01-11T07:16:31.997Z,95.20
2019-01-11T07:18:59.753Z,95.10
2019-01-11T07:21:27.520Z,94.90
2019-01-11T07:23:55.170Z,94.80
2019-01-11T07:26:22.866Z,94.70
2019-01-11T07:28:50.585Z,94.60
2019-01-11T07:31:21.527Z,94.40
2019-01-11T07:33:49.201Z,94.30
2019-01-11T07:36:31.011Z,94.20
2019-01-11T07:38:58.695Z,94.10
2019-01-11T07:41:26.370Z,94.00
2019-01-11T07:43:54.110Z,93.90
2019-01-11T07:46:21.798Z,93.80
2019-01-11T07:48:49.485Z,93.70
2019-01-11T07:51:17.252Z,93.50
2019-01-11T07:53:44.955Z,93.20
2019-01-11T07:56:12.641Z,93.10
2019-01-11T07:58:40.362Z,93.10
2019-01-11T08:01:08.044Z,92.90
2019-01-11T08:03:35.744Z,92.80
2019-01-11T08:06:03.590Z,92.70
2019-01-11T08:08:31.278Z,92.50
2019-01-11T08:10:58.966Z,92.20
2019-01-11T08:13:26.674Z,92.10
2019-01-11T08:15:54.349Z,92.00
2019-01-11T08:18:22.257Z,91.80
2019-01-11T08:20:56.189Z,91.70
2019-01-11T08:23:19.941Z,91.40
2019-01-11T08:25:47.678Z,91.10
2019-01-11T08:28:15.496Z,90.80
2019-01-11T08:30:43.188Z,90.60
2019-01-11T08:33:10.876Z,90.70
2019-01-11T08:35:38.610Z,90.60
2019-01-11T08:38:06.311Z,90.50
2019-01-11T08:40:34.078Z,90.40
2019-01-11T08:43:01.863Z,90.40
2019-01-11T08:45:29.542Z,90.20
2019-01-11T08:47:57.260Z,89.90
2019-01-11T08:50:25.002Z,89.60
2019-01-11T08:52:52.710Z,88.90
2019-01-11T08:55:20.434Z,87.90
2019-01-11T08:57:48.178Z,87.60
2019-01-11T09:00:15.948Z,86.90
2019-01-11T09:02:43.657Z,86.50
2019-01-11T09:05:11.418Z,86.00
2019-01-11T09:07:39.225Z,86.00
2019-01-11T09:10:08.395Z,86.00
2019-01-11T09:12:36.130Z,85.80
2019-01-11T09:15:04.877Z,85.10
2019-01-11T09:17:34.465Z,85.40
2019-01-11T09:20:02.276Z,85.30
2019-01-11T09:22:30.043Z,84.90
2019-01-11T09:24:57.737Z,84.70
2019-01-11T09:27:25.467Z,85.10
2019-01-11T09:29:53.146Z,85.00
2019-01-11T09:32:20.848Z,84.70
2019-01-11T09:34:48.574Z,84.00
2019-01-11T09:37:16.266Z,83.80
2019-01-11T09:39:43.973Z,83.30
2019-01-11T09:42:12.002Z,83.30
2019-01-11T09:44:39.703Z,83.30
2019-01-11T09:47:07.385Z,83.00
2019-01-11T09:49:35.154Z,82.20
2019-01-11T09:52:02.848Z,82.20
2019-01-11T09:54:30.526Z,81.60
2019-01-11T09:56:58.297Z,80.90
2019-01-11T09:59:25.988Z,80.80
2019-01-11T10:02:24.960Z,80.60
2019-01-11T10:04:52.693Z,79.90
2019-01-11T10:07:30.498Z,80.10
2019-01-11T10:09:58.117Z,79.50
2019-01-11T10:12:25.897Z,78.00
2019-01-11T10:14:53.609Z,78.10
2019-01-11T10:17:21.299Z,78.40
2019-01-11T10:19:48.974Z,78.40
2019-01-11T10:22:16.935Z,77.90
2019-01-11T10:24:44.753Z,78.40
2019-01-11T10:27:12.438Z,78.70
2019-01-11T10:29:40.190Z,77.70
2019-01-11T10:32:07.896Z,77.60
2019-01-11T10:34:35.618Z,77.70
2019-01-11T10:37:03.635Z,77.80
2019-01-11T10:39:31.375Z,77.80
2019-01-11T10:41:59.054Z,77.70
2019-01-11T10:44:26.782Z,77.20
2019-01-11T10:46:54.473Z,76.90
2019-01-11T10:49:22.157Z,76.10
2019-01-11T10:51:49.901Z,75.80
2019-01-11T10:54:29.005Z,75.70
2019-01-11T10:56:56.766Z,75.70
2019-01-11T10:59:24.467Z,75.20
2019-01-11T11:01:52.153Z,74.40
2019-01-11T11:04:19.878Z,75.00
2019-01-11T11:06:47.604Z,75.00
2019-01-11T11:09:15.303Z,75.90
2019-01-11T11:11:43.037Z,76.30
2019-01-11T11:14:10.730Z,74.70
2019-01-11T11:16:38.412Z,73.60
2019-01-11T11:19:06.134Z,74.10
2019-01-11T11:21:34.821Z,73.50
2019-01-11T11:24:02.654Z,72.90
2019-01-11T11:26:43.143Z,73.80
2019-01-11T11:29:10.831Z,74.90
2019-01-11T11:31:38.538Z,74.00
2019-01-11T11:34:06.243Z,73.30
2019-01-11T11:36:34.797Z,73.20
2019-01-11T11:39:03.809Z,73.90
2019-01-11T11:41:31.607Z,72.80
2019-01-11T11:43:59.290Z,71.90
2019-01-11T11:46:26.978Z,70.90
2019-01-11T11:48:54.784Z,71.00
2019-01-11T11:51:22.483Z,70.50
2019-01-11T11:53:50.189Z,70.40
2019-01-11T11:56:17.910Z,69.70
2019-01-11T11:58:45.597Z,69.40
2019-01-11T12:01:13.306Z,69.10
2019-01-11T12:03:41.040Z,69.20
2019-01-11T12:06:08.754Z,69.70
2019-01-11T12:08:36.430Z,70.80
2019-01-11T12:11:04.174Z,71.20
2019-01-11T12:13:34.605Z,69.60
2019-01-11T12:16:01.457Z,70.00
2019-01-11T12:18:29.196Z,69.90
2019-01-11T12:20:56.902Z,69.60
2019-01-11T12:23:24.617Z,69.90
2019-01-11T12:25:52.375Z,69.00
2019-01-11T12:28:20.442Z,68.10
2019-01-11T12:30:48.099Z,68.60
2019-01-11T12:33:15.824Z,67.80
2019-01-11T12:35:43.509Z,66.30
2019-01-11T12:38:13.829Z,67.60
2019-01-11T12:40:40.722Z,68.20
2019-01-11T12:43:08.405Z,70.00
2019-01-11T12:45:36.093Z,70.40
2019-01-11T12:48:03.844Z,70.80
2019-01-11T12:50:35.961Z,70.50
2019-01-11T12:53:03.667Z,70.40
2019-01-11T12:55:31.658Z,70.90
2019-01-11T12:57:59.341Z,70.00
2019-01-11T13:00:27.152Z,70.30
2019-01-11T13:02:54.902Z,69.30
2019-01-11T13:05:22.595Z,70.40
2019-01-11T13:07:50.284Z,69.50
2019-01-11T13:10:18.969Z,69.90
2019-01-11T13:12:46.648Z,70.80
2019-01-11T13:15:16.431Z,70.10
2019-01-11T13:17:44.161Z,69.80
2019-01-11T13:20:13.190Z,70.10
2019-01-11T13:22:40.905Z,69.80
2019-01-11T13:25:08.897Z,70.40
2019-01-11T13:27:36.659Z,70.20
2019-01-11T13:30:06.401Z,69.30
2019-01-11T13:32:34.167Z,68.70
2019-01-11T13:35:01.911Z,67.40
2019-01-11T13:37:29.584Z,66.60
2019-01-11T13:39:57.330Z,66.40
2019-01-11T13:42:25.018Z,66.50
2019-01-11T13:44:52.713Z,66.90
2019-01-11T13:47:20.442Z,66.70
2019-01-11T13:49:48.125Z,65.60
2019-01-11T13:52:15.856Z,65.90
2019-01-11T13:54:44.426Z,66.50
2019-01-11T13:57:12.502Z,66.20
2019-01-11T13:59:41.611Z,66.40
2019-01-11T14:02:09.529Z,66.40
2019-01-11T14:04:37.225Z,66.10
2019-01-11T14:07:05.031Z,66.30
2019-01-11T14:09:32.886Z,66.50
2019-01-11T14:12:00.673Z,66.60
2019-01-11T14:14:28.325Z,67.00
2019-01-11T14:16:56.058Z,68.00
2019-01-11T14:19:23.745Z,68.70
2019-01-11T14:21:51.436Z,69.20
2019-01-11T14:24:19.155Z,69.30
2019-01-11T14:26:46.849Z,69.90
2019-01-11T14:29:14.538Z,69.60
2019-01-11T14:31:42.328Z,68.30
2019-01-11T14:34:10.026Z,67.70
2019-01-11T14:36:37.721Z,67.60
2019-01-11T14:39:08.068Z,66.50
2019-01-11T14:41:36.059Z,66.00
2019-01-11T14:44:04.000Z,65.40
2019-01-11T14:46:31.806Z,65.40
2019-01-11T14:48:59.506Z,63.90
2019-01-11T14:51:27.204Z,64.20
2019-01-11T14:53:54.953Z,64.10
2019-01-11T14:56:22.650Z,63.50
2019-01-11T14:58:50.341Z,63.40
2019-01-11T15:01:18.075Z,63.30
2019-01-11T15:03:45.766Z,64.00
2019-01-11T15:06:13.445Z,64.30
2019-01-11T15:08:41.192Z,64.30
2019-01-11T15:11:08.871Z,65.30
2019-01-11T15:13:36.563Z,65.50
2019-01-11T15:16:04.346Z,65.60
2019-01-11T15:18:32.252Z,65.20
2019-01-11T15:20:59.943Z,65.70
2019-01-11T15:23:27.691Z,66.20
2019-01-11T15:25:55.386Z,66.40
2019-01-11T15:28:23.082Z,65.70
2019-01-11T15:30:50.809Z,65.50
2019-01-11T15:33:18.649Z,65.70
2019-01-11T15:35:46.361Z,66.20
2019-01-11T15:38:14.231Z,66.40
2019-01-11T15:40:41.933Z,67.40
2019-01-11T15:43:09.654Z,67.20
2019-01-11T15:45:37.431Z,68.10
2019-01-11T15:48:05.174Z,67.70
2019-01-11T15:50:58.189Z,67.90
2019-01-11T15:53:45.282Z,67.50
2019-01-11T15:56:13.122Z,68.30
2019-01-11T15:58:40.813Z,68.20
2019-01-11T16:01:08.512Z,68.70
2019-01-11T16:03:36.218Z,69.30
2019-01-11T16:06:36.333Z,69.80
2019-01-11T16:09:16.677Z,70.50
2019-01-11T16:11:47.769Z,71.20
2019-01-11T16:14:49.387Z,71.40
2019-01-11T16:17:17.522Z,71.90
2019-01-11T16:19:45.211Z,72.80
2019-01-11T16:22:12.918Z,73.10
2019-01-11T16:24:40.611Z,74.50
2019-01-11T16:27:08.361Z,76.80
2019-01-11T16:29:36.105Z,78.20
2019-01-11T16:32:03.834Z,79.60
2019-01-11T16:34:31.817Z,80.70
2019-01-11T16:36:59.539Z,81.40
2019-01-11T16:39:27.251Z,82.40
2019-01-11T16:41:54.949Z,83.00
2019-01-11T16:44:22.718Z,83.40
2019-01-11T16:46:50.443Z,83.80
2019-01-11T16:49:18.148Z,84.30
2019-01-11T16:51:45.936Z,84.70
2019-01-11T16:54:13.674Z,85.00
2019-01-11T16:56:41.379Z,85.80
2019-01-11T16:59:09.126Z,86.20
2019-01-11T17:01:36.832Z,86.60
2019-01-11T17:04:04.584Z,86.80
2019-01-11T17:06:32.616Z,86.90
2019-01-11T17:09:00.553Z,87.00
2019-01-11T17:11:28.263Z,86.90
2019-01-11T17:13:55.981Z,86.80
2019-01-11T17:16:23.698Z,86.90
2019-01-11T17:18:51.402Z,87.10
2019-01-11T17:21:19.134Z,86.90
2019-01-11T17:23:46.875Z,87.10
2019-01-11T17:26:14.610Z,87.30
2019-01-11T17:28:42.338Z,87.60
2019-01-11T17:31:10.009Z,87.50
2019-01-11T17:33:37.690Z,87.80
2019-01-11T17:36:05.529Z,87.90
2019-01-11T17:38:33.213Z,87.90
2019-01-11T17:41:01.118Z,88.10
2019-01-11T17:43:28.828Z,88.50
2019-01-11T17:45:56.514Z,88.70
2019-01-11T17:48:24.201Z,90.30
2019-01-11T17:50:51.941Z,89.70
2019-01-11T17:53:19.635Z,89.10
2019-01-11T17:55:47.330Z,88.80
2019-01-11T17:58:15.052Z,88.80
2019-01-11T18:00:43.142Z,88.90
2019-01-11T18:03:10.818Z,88.70
2019-01-11T18:05:38.533Z,89.30
2019-01-11T18:08:06.217Z,88.70
2019-01-11T18:10:33.942Z,88.80
2019-01-11T18:13:01.986Z,88.80
2019-01-11T18:15:29.705Z,88.70
2019-01-11T18:17:57.413Z,88.80
2019-01-11T18:20:27.386Z,88.40
2019-01-11T18:22:55.109Z,88.70
2019-01-11T18:25:22.798Z,88.80
2019-01-11T18:27:50.526Z,89.00
2019-01-11T18:30:18.238Z,89.20
2019-01-11T18:32:45.954Z,89.20
2019-01-11T18:35:13.686Z,89.40
2019-01-11T18:37:41.633Z,89.60
2019-01-11T18:40:12.575Z,89.70
2019-01-11T18:42:40.317Z,89.70
2019-01-11T18:45:08.015Z,89.80
2019-01-11T18:47:35.691Z,90.00
2019-01-11T18:50:04.875Z,90.00
2019-01-11T18:52:32.610Z,90.00
2019-01-11T18:55:01.189Z,90.00
2019-01-11T18:57:29.163Z,90.00
2019-01-11T18:59:56.836Z,90.00
2019-01-11T19:02:24.547Z,90.00
2019-01-11T19:04:52.269Z,89.90
2019-01-11T19:07:19.998Z,89.80
2019-01-11T19:09:47.679Z,89.80
2019-01-11T19:12:15.670Z,89.60
2019-01-11T19:14:43.358Z,89.50
2019-01-11T19:17:11.039Z,89.90
2019-01-11T19:19:38.763Z,89.60
2019-01-11T19:22:06.449Z,89.40
2019-01-11T19:24:34.154Z,89.40
2019-01-11T19:27:01.943Z,89.40
2019-01-11T19:29:29.639Z,90.10
2019-01-11T19:31:57.330Z,89.70
2019-01-11T19:34:25.066Z,89.80
2019-01-11T19:36:52.745Z,90.00
2019-01-11T19:39:20.617Z,90.10
2019-01-11T19:41:48.331Z,90.30
2019-01-11T19:44:16.006Z,90.40
2019-01-11T19:46:43.712Z,90.60
2019-01-11T19:49:11.477Z,90.70
2019-01-11T19:51:39.157Z,90.70
2019-01-11T19:54:06.866Z,90.70
2019-01-11T19:56:34.808Z,90.70
2019-01-11T19:59:02.581Z,90.80
2019-01-11T20:01:30.356Z,90.80
2019-01-11T20:03:58.091Z,90.60
2019-01-11T20:06:25.804Z,90.90
2019-01-11T20:08:53.488Z,90.80
2019-01-11T20:11:21.361Z,90.90
2019-01-11T20:13:49.034Z,90.90
2019-01-11T20:16:16.841Z,91.00
2019-01-11T20:19:03.978Z,91.00
2019-01-11T20:21:31.719Z,91.00
2019-01-11T20:23:59.617Z,91.10
2019-01-11T20:26:27.322Z,91.10
2019-01-11T20:28:55.021Z,91.20
2019-01-11T20:31:22.714Z,91.30
2019-01-11T20:33:50.646Z,91.30
2019-01-11T20:36:18.337Z,91.40
2019-01-11T20:38:46.014Z,91.30
2019-01-11T20:41:14.021Z,91.40
2019-01-11T20:43:41.746Z,91.40
2019-01-11T20:46:09.464Z,91.40
2019-01-11T20:48:37.189Z,91.40
2019-01-11T20:51:04.902Z,91.30
2019-01-11T20:53:41.377Z,91.30
2019-01-11T20:56:04.867Z,91.30
2019-01-11T20:58:35.522Z,91.30
2019-01-11T21:01:04.736Z,91.30
2019-01-11T21:03:35.478Z,91.30
2019-01-11T21:06:03.456Z,91.30
2019-01-11T21:08:33.990Z,91.30
2019-01-11T21:11:01.845Z,91.30
2019-01-11T21:13:29.529Z,91.30
2019-01-11T21:15:57.237Z,91.40
2019-01-11T21:18:24.966Z,91.30
2019-01-11T21:20:52.677Z,91.20
2019-01-11T21:23:20.378Z,91.30
2019-01-11T21:25:48.114Z,91.20
2019-01-11T21:28:15.799Z,91.20
2019-01-11T21:30:43.491Z,91.30
2019-01-11T21:33:11.214Z,91.30
2019-01-11T21:35:38.919Z,91.30
2019-01-11T21:38:06.622Z,91.30
2019-01-11T21:40:34.339Z,91.20
2019-01-11T21:43:02.165Z,91.20
2019-01-11T21:45:29.879Z,91.10
2019-01-11T21:47:57.746Z,91.20
2019-01-11T21:50:26.818Z,91.20
2019-01-11T21:52:54.507Z,91.10
2019-01-11T21:55:22.218Z,91.50
2019-01-11T21:57:49.959Z,91.10
2019-01-11T22:00:23.379Z,91.10
2019-01-11T22:02:51.081Z,91.10
2019-01-11T22:05:18.805Z,91.10
2019-01-11T22:07:46.535Z,91.10
2019-01-11T22:10:14.254Z,91.10
2019-01-11T22:12:41.930Z,91.10
2019-01-11T22:15:11.170Z,91.10
2019-01-11T22:17:38.979Z,91.10
2019-01-11T22:20:08.465Z,91.10
2019-01-11T22:22:36.146Z,91.10
2019-01-11T22:25:04.374Z,91.10
2019-01-11T22:27:32.078Z,91.00
2019-01-11T22:29:59.878Z,90.90
2019-01-11T22:32:28.237Z,90.90
2019-01-11T22:34:55.902Z,90.90
2019-01-11T22:37:23.585Z,90.80
2019-01-11T22:39:51.449Z,90.80
2019-01-11T22:42:19.153Z,90.80
2019-01-11T22:44:46.978Z,90.70
2019-01-11T22:47:14.695Z,90.70
2019-01-11T22:49:42.379Z,90.80
2019-01-11T22:52:10.102Z,90.70
2019-01-11T22:54:37.853Z,90.80
2019-01-11T22:57:05.573Z,90.70
2019-01-11T22:59:33.291Z,90.80
2019-01-11T23:02:15.967Z,90.70
2019-01-11T23:04:43.686Z,90.60
2019-01-11T23:07:32.050Z,90.60
2019-01-11T23:10:40.440Z,90.50
2019-01-11T23:13:11.727Z,90.50
2019-01-11T23:15:42.149Z,90.60
2019-01-11T23:18:15.117Z,90.70
2019-01-11T23:20:43.045Z,90.80
2019-01-11T23:23:10.730Z,90.90
2019-01-11T23:25:38.466Z,90.90
2019-01-11T23:28:06.158Z,91.10
2019-01-11T23:30:33.848Z,91.30
2019-01-11T23:33:01.581Z,91.50
2019-01-11T23:35:29.321Z,91.60
2019-01-11T23:37:57.046Z,91.60
2019-01-11T23:40:24.779Z,91.60
2019-01-11T23:42:52.486Z,91.60
2019-01-11T23:45:20.281Z,91.60
2019-01-11T23:47:48.002Z,91.60
2019-01-11T23:50:16.515Z,91.60
2019-01-11T23:52:44.190Z,91.50
2019-01-11T23:55:12.126Z,91.40
2019-01-11T23:57:39.809Z,91.40
